Bernalillo, New Mexico
Current Conditions -  °F | °C
As of 1:52 PM on Friday 24 Oct 2014 (Local Time) from KABQ Reporting Station
Clear Clear  
Wind Chill: 74°   Ceiling: Unl
Heat Index: 74°   Visibility: 10mi
Dew Point: 32°   Wind: 0mph
Humidity: 21%   Direction: NA
Pressure: 30.28"   Gusts: NA
Location:  35.3°N, 106.54°W
Report Text: KABQ 241952Z 00000KT 10SM CLR 23/00 A3028 RMK AO2 SLP188 T02330000
Loading
Personal Weather Stations






























Interactive Weather Map
Tropical Storm Tracking
New forecast layout! Learn more

10-Day Weather Forecast

Advertisements
Track Severe Weather on mobile